sensor_id;sensor_type;location;lat;lon;timestamp;pressure;altitude;pressure_sealevel;temperature;humidity
11643;BME280;5877;50.930;6.918;2023-12-04T01:01:19;100495.81;;;-1.74;78.89
11643;BME280;5877;50.930;6.918;2023-12-04T01:06:35;100531.69;;;-1.34;78.85
11643;BME280;5877;50.930;6.918;2023-12-04T01:12:17;100865.13;;;0.65;78.64
11643;BME280;5877;50.930;6.918;2023-12-04T01:25:06;100852.50;;;0.62;77.05
11643;BME280;5877;50.930;6.918;2023-12-04T01:31:07;100578.03;;;-1.34;77.12
11643;BME280;5877;50.930;6.918;2023-12-04T01:42:44;100752.09;;;0.12;76.54
11643;BME280;5877;50.930;6.918;2023-12-04T01:48:13;100488.47;;;-1.59;76.86
11643;BME280;5877;50.930;6.918;2023-12-04T01:53:16;100433.38;;;-2.14;76.57
11643;BME280;5877;50.930;6.918;2023-12-04T02:05:51;100822.97;;;0.64;75.70
11643;BME280;5877;50.930;6.918;2023-12-04T02:10:52;100278.91;;;-2.88;75.84
11643;BME280;5877;50.930;6.918;2023-12-04T02:16:09;100413.88;;;-2.26;74.58
11643;BME280;5877;50.930;6.918;2023-12-04T02:21:41;100803.69;;;0.59;75.32
11643;BME280;5877;50.930;6.918;2023-12-04T02:40:17;100790.59;;;0.70;73.48
11643;BME280;5877;50.930;6.918;2023-12-04T02:45:58;100399.38;;;-1.60;72.74
11643;BME280;5877;50.930;6.918;2023-12-04T02:51:49;100461.75;;;-1.29;73.04
11643;BME280;5877;50.930;6.918;2023-12-04T02:57:40;100522.25;;;-0.86;73.67
11643;BME280;5877;50.930;6.918;2023-12-04T03:03:36;100760.66;;;0.77;73.28
11643;BME280;5877;50.930;6.918;2023-12-04T03:09:03;100755.41;;;0.69;73.14
11643;BME280;5877;50.930;6.918;2023-12-04T03:14:17;100448.22;;;-1.31;72.33
11643;BME280;5877;50.930;6.918;2023-12-04T03:20:09;100737.31;;;0.69;71.85
11643;BME280;5877;50.930;6.918;2023-12-04T03:26:11;100371.50;;;-1.65;72.14
11643;BME280;5877;50.930;6.918;2023-12-04T03:32:00;100722.09;;;0.66;71.72
11643;BME280;5877;50.930;6.918;2023-12-04T03:38:24;100716.84;;;0.58;71.95
11643;BME280;5877;50.930;6.918;2023-12-04T03:44:33;100599.88;;;-0.15;71.98
11643;BME280;5877;50.930;6.918;2023-12-04T03:50:07;100698.78;;;0.58;72.79
11643;BME280;5877;50.930;6.918;2023-12-04T03:56:07;100490.91;;;-0.82;71.93
11643;BME280;5877;50.930;6.918;2023-12-04T04:01:59;100281.69;;;-2.05;70.88
11643;BME280;5877;50.930;6.918;2023-12-04T04:07:30;100636.97;;;0.29;71.26
11643;BME280;5877;50.930;6.918;2023-12-04T04:13:06;100064.09;;;-3.55;71.04
11643;BME280;5877;50.930;6.918;2023-12-04T04:31:34;100649.81;;;0.39;74.39
11643;BME280;5877;50.930;6.918;2023-12-04T04:37:05;100245.31;;;-2.19;73.90
11643;BME280;5877;50.930;6.918;2023-12-04T04:43:04;100652.84;;;0.34;75.39
11643;BME280;5877;50.930;6.918;2023-12-04T04:48:42;100507.25;;;-0.63;75.16
11643;BME280;5877;50.930;6.918;2023-12-04T04:54:25;100533.81;;;-0.53;75.05
11643;BME280;5877;50.930;6.918;2023-12-04T05:00:30;100660.34;;;0.27;74.55
11643;BME280;5877;50.930;6.918;2023-12-04T05:06:17;100620.53;;;0.03;75.84
11643;BME280;5877;50.930;6.918;2023-12-04T05:11:31;100559.66;;;-0.36;74.85
11643;BME280;5877;50.930;6.918;2023-12-04T05:17:09;100364.53;;;-1.45;75.08
11643;BME280;5877;50.930;6.918;2023-12-04T05:22:25;100515.16;;;-0.75;75.34
11643;BME280;5877;50.930;6.918;2023-12-04T05:27:18;100514.53;;;-0.49;74.95
11643;BME280;5877;50.930;6.918;2023-12-04T05:32:41;100554.13;;;-0.13;74.69
11643;BME280;5877;50.930;6.918;2023-12-04T05:37:36;100631.25;;;0.53;74.25
11643;BME280;5877;50.930;6.918;2023-12-04T05:42:47;100524.31;;;-0.25;74.87
11643;BME280;5877;50.930;6.918;2023-12-04T05:47:47;100201.16;;;-2.05;74.25
11643;BME280;5877;50.930;6.918;2023-12-04T05:53:12;100264.63;;;-1.59;74.63
11643;BME280;5877;50.930;6.918;2023-12-04T06:09:44;100446.25;;;-0.45;73.86
11643;BME280;5877;50.930;6.918;2023-12-04T06:21:09;100477.53;;;-0.30;74.68
11643;BME280;5877;50.930;6.918;2023-12-04T06:26:06;100276.41;;;-1.56;73.62
11643;BME280;5877;50.930;6.918;2023-12-04T06:31:52;100563.38;;;0.60;74.82
11643;BME280;5877;50.930;6.918;2023-12-04T06:37:15;100535.50;;;0.46;74.87
11643;BME280;5877;50.930;6.918;2023-12-04T06:43:13;100430.97;;;-0.29;75.69
11643;BME280;5877;50.930;6.918;2023-12-04T06:48:27;100037.91;;;-2.74;75.58
11643;BME280;5877;50.930;6.918;2023-12-04T06:53:27;100363.91;;;-0.47;75.83
11643;BME280;5877;50.930;6.918;2023-12-04T06:58:32;100369.16;;;-0.39;74.47
11643;BME280;5877;50.930;6.918;2023-12-04T07:03:32;100515.59;;;0.39;75.12
11643;BME280;5877;50.930;6.918;2023-12-04T07:08:35;100100.50;;;-1.83;74.09
11643;BME280;5877;50.930;6.918;2023-12-04T07:14:40;100505.53;;;0.53;74.17
11643;BME280;5877;50.930;6.918;2023-12-04T07:20:42;100178.09;;;-1.60;73.58
11643;BME280;5877;50.930;6.918;2023-12-04T07:25:54;100488.16;;;0.38;75.56
11643;BME280;5877;50.930;6.918;2023-12-04T07:30:58;100393.53;;;-0.15;73.43
11643;BME280;5877;50.930;6.918;2023-12-04T07:36:09;100464.56;;;0.15;72.99
11643;BME280;5877;50.930;6.918;2023-12-04T07:41:11;100492.41;;;0.47;72.35
11643;BME280;5877;50.930;6.918;2023-12-04T07:46:11;100408.13;;;-0.06;73.58
11643;BME280;5877;50.930;6.918;2023-12-04T07:51:09;100075.94;;;-2.22;71.87
11643;BME280;5877;50.930;6.918;2023-12-04T07:56:19;100309.34;;;-0.60;72.31
11643;BME280;5877;50.930;6.918;2023-12-04T08:01:34;100268.13;;;-1.23;72.52
11643;BME280;5877;50.930;6.918;2023-12-04T08:06:32;100225.72;;;-1.28;73.29
11643;BME280;5877;50.930;6.918;2023-12-04T08:11:30;100410.59;;;0.04;72.69
11643;BME280;5877;50.930;6.918;2023-12-04T08:16:27;100160.13;;;-1.42;71.49
11643;BME280;5877;50.930;6.918;2023-12-04T08:21:47;100340.84;;;-0.30;71.11
11643;BME280;5877;50.930;6.918;2023-12-04T08:26:47;100024.34;;;-2.39;70.92
11643;BME280;5877;50.930;6.918;2023-12-04T08:31:41;100137.41;;;-1.29;71.28
11643;BME280;5877;50.930;6.918;2023-12-04T08:36:36;100457.50;;;0.86;69.92
11643;BME280;5877;50.930;6.918;2023-12-04T08:41:37;100421.38;;;0.94;69.13
11643;BME280;5877;50.930;6.918;2023-12-04T08:46:37;100427.84;;;0.64;69.94
11643;BME280;5877;50.930;6.918;2023-12-04T08:51:32;100446.97;;;1.06;69.30
11643;BME280;5877;50.930;6.918;2023-12-04T08:56:55;100355.03;;;0.35;69.99
11643;BME280;5877;50.930;6.918;2023-12-04T09:01:58;100436.94;;;1.03;70.21
11643;BME280;5877;50.930;6.918;2023-12-04T09:07:21;100047.91;;;-1.53;69.10
11643;BME280;5877;50.930;6.918;2023-12-04T09:12:28;100026.81;;;-1.56;68.54
11643;BME280;5877;50.930;6.918;2023-12-04T09:17:57;100097.63;;;-1.35;68.71
11643;BME280;5877;50.930;6.918;2023-12-04T09:23:35;100167.94;;;-0.55;68.53
11643;BME280;5877;50.930;6.918;2023-12-04T09:35:00;100412.00;;;1.27;67.54
11643;BME280;5877;50.930;6.918;2023-12-04T09:40:13;100332.81;;;0.76;67.49
11643;BME280;5877;50.930;6.918;2023-12-04T09:46:07;100382.72;;;1.19;67.18
11643;BME280;5877;50.930;6.918;2023-12-04T09:51:30;100376.03;;;1.50;66.83
11643;BME280;5877;50.930;6.918;2023-12-04T09:56:45;99927.72;;;-1.09;66.32
11643;BME280;5877;50.930;6.918;2023-12-04T10:08:36;100067.00;;;0.00;65.50
11643;BME280;5877;50.930;6.918;2023-12-04T10:20:59;100220.66;;;0.95;65.16
11643;BME280;5877;50.930;6.918;2023-12-04T10:26:54;100003.09;;;-0.30;65.02
11643;BME280;5877;50.930;6.918;2023-12-04T10:32:19;99929.75;;;-0.86;65.11
11643;BME280;5877;50.930;6.918;2023-12-04T10:37:59;100213.75;;;1.28;65.03
11643;BME280;5877;50.930;6.918;2023-12-04T10:43:53;99981.81;;;-0.32;66.01
11643;BME280;5877;50.930;6.918;2023-12-04T10:55:45;99964.06;;;-0.44;67.27
11643;BME280;5877;50.930;6.918;2023-12-04T11:01:32;100038.56;;;-0.24;68.46
11643;BME280;5877;50.930;6.918;2023-12-04T11:06:52;100281.16;;;1.91;69.55
11643;BME280;5877;50.930;6.918;2023-12-04T11:12:35;100005.25;;;0.07;70.64
11643;BME280;5877;50.930;6.918;2023-12-04T11:18:14;100241.56;;;1.42;70.63
11643;BME280;5877;50.930;6.918;2023-12-04T11:24:10;99849.53;;;-1.00;73.14
11643;BME280;5877;50.930;6.918;2023-12-04T11:30:18;100237.66;;;1.71;81.93
11643;BME280;5877;50.930;6.918;2023-12-04T11:36:40;100227.00;;;1.33;95.96
11643;BME280;5877;50.930;6.918;2023-12-04T11:42:39;99994.25;;;-0.20;100.00
11643;BME280;5877;50.930;6.918;2023-12-04T11:48:47;100211.81;;;1.06;100.00
11643;BME280;5877;50.930;6.918;2023-12-04T12:00:48;100178.03;;;1.07;100.00
11643;BME280;5877;50.930;6.918;2023-12-04T12:05:57;100175.94;;;1.03;100.00
11643;BME280;5877;50.930;6.918;2023-12-04T12:11:43;100023.16;;;0.00;100.00
11643;BME280;5877;50.930;6.918;2023-12-04T12:17:16;100142.19;;;1.20;100.00
11643;BME280;5877;50.930;6.918;2023-12-04T12:28:22;100014.31;;;0.19;100.00
11643;BME280;5877;50.930;6.918;2023-12-04T12:39:14;100131.03;;;1.20;100.00
11643;BME280;5877;50.930;6.918;2023-12-04T12:45:43;100110.97;;;1.54;100.00
11643;BME280;5877;50.930;6.918;2023-12-04T12:51:47;100086.72;;;1.47;100.00
11643;BME280;5877;50.930;6.918;2023-12-04T13:07:36;99974.78;;;1.30;100.00
11643;BME280;5877;50.930;6.918;2023-12-04T13:12:29;100046.09;;;1.64;100.00
11643;BME280;5877;50.930;6.918;2023-12-04T13:17:23;99713.06;;;-0.35;100.00
11643;BME280;5877;50.930;6.918;2023-12-04T13:22:18;99963.75;;;1.45;100.00
11643;BME280;5877;50.930;6.918;2023-12-04T13:27:11;99756.47;;;0.01;100.00
11643;BME280;5877;50.930;6.918;2023-12-04T13:32:13;99990.09;;;1.48;100.00
11643;BME280;5877;50.930;6.918;2023-12-04T13:37:06;100001.34;;;1.63;100.00
11643;BME280;5877;50.930;6.918;2023-12-04T13:41:59;99955.94;;;1.22;100.00
11643;BME280;5877;50.930;6.918;2023-12-04T13:47:10;99966.44;;;1.20;100.00
11643;BME280;5877;50.930;6.918;2023-12-04T13:52:05;99963.66;;;1.30;100.00
11643;BME280;5877;50.930;6.918;2023-12-04T13:57:02;99859.34;;;0.84;100.00
11643;BME280;5877;50.930;6.918;2023-12-04T14:02:01;99687.44;;;-0.44;100.00
11643;BME280;5877;50.930;6.918;2023-12-04T14:06:57;99679.63;;;-0.04;99.17
11643;BME280;5877;50.930;6.918;2023-12-04T14:11:55;99947.88;;;1.56;100.00
11643;BME280;5877;50.930;6.918;2023-12-04T14:16:48;99892.59;;;1.26;98.33
11643;BME280;5877;50.930;6.918;2023-12-04T14:21:41;99907.31;;;1.17;99.54
11643;BME280;5877;50.930;6.918;2023-12-04T14:26:33;99817.09;;;0.69;99.48
11643;BME280;5877;50.930;6.918;2023-12-04T14:31:26;99909.47;;;1.45;99.11
11643;BME280;5877;50.930;6.918;2023-12-04T14:36:19;99722.44;;;0.06;98.62
11643;BME280;5877;50.930;6.918;2023-12-04T14:41:11;99533.28;;;-0.96;96.58
11643;BME280;5877;50.930;6.918;2023-12-04T14:46:04;99894.91;;;1.44;98.05
11643;BME280;5877;50.930;6.918;2023-12-04T14:50:58;99847.66;;;0.96;99.65
11643;BME280;5877;50.930;6.918;2023-12-04T14:55:53;99877.03;;;1.34;99.52
11643;BME280;5877;50.930;6.918;2023-12-04T15:01:05;99881.31;;;1.50;98.07
11643;BME280;5877;50.930;6.918;2023-12-04T15:06:09;99855.47;;;1.19;100.00
11643;BME280;5877;50.930;6.918;2023-12-04T15:11:07;99772.03;;;0.40;100.00
11643;BME280;5877;50.930;6.918;2023-12-04T15:16:15;99458.06;;;-1.55;100.00
11643;BME280;5877;50.930;6.918;2023-12-04T15:21:34;99821.97;;;0.55;100.00
11643;BME280;5877;50.930;6.918;2023-12-04T15:26:27;99818.22;;;0.74;100.00
11643;BME280;5877;50.930;6.918;2023-12-04T15:31:20;99653.94;;;-0.36;100.00
11643;BME280;5877;50.930;6.918;2023-12-04T15:36:14;99805.31;;;0.66;100.00
11643;BME280;5877;50.930;6.918;2023-12-04T15:41:10;99850.81;;;0.75;100.00
11643;BME280;5877;50.930;6.918;2023-12-04T15:46:02;99690.63;;;-0.18;100.00
11643;BME280;5877;50.930;6.918;2023-12-04T15:50:54;99837.16;;;0.97;100.00
11643;BME280;5877;50.930;6.918;2023-12-04T15:55:47;99742.50;;;0.43;100.00
11643;BME280;5877;50.930;6.918;2023-12-04T16:00:41;99777.31;;;0.47;100.00
11643;BME280;5877;50.930;6.918;2023-12-04T16:06:09;99816.94;;;1.32;100.00
11643;BME280;5877;50.930;6.918;2023-12-04T16:11:29;99687.69;;;0.32;100.00
11643;BME280;5877;50.930;6.918;2023-12-04T16:16:38;99590.34;;;-0.52;100.00
11643;BME280;5877;50.930;6.918;2023-12-04T16:21:51;99702.34;;;0.71;100.00
11643;BME280;5877;50.930;6.918;2023-12-04T16:27:11;99804.47;;;1.36;100.00
11643;BME280;5877;50.930;6.918;2023-12-04T16:32:28;99807.34;;;1.41;100.00
11643;BME280;5877;50.930;6.918;2023-12-04T16:38:28;99801.72;;;1.60;100.00
11643;BME280;5877;50.930;6.918;2023-12-04T16:44:00;99768.97;;;1.29;100.00
11643;BME280;5877;50.930;6.918;2023-12-04T16:48:56;99710.34;;;1.07;100.00
11643;BME280;5877;50.930;6.918;2023-12-04T16:53:54;99478.47;;;-0.35;100.00
11643;BME280;5877;50.930;6.918;2023-12-04T16:59:42;99786.72;;;1.55;100.00
11643;BME280;5877;50.930;6.918;2023-12-04T17:05:06;99644.38;;;0.96;100.00
11643;BME280;5877;50.930;6.918;2023-12-04T17:10:04;99697.13;;;1.25;100.00
11643;BME280;5877;50.930;6.918;2023-12-04T17:15:03;99764.22;;;1.79;100.00
11643;BME280;5877;50.930;6.918;2023-12-04T17:20:28;99778.16;;;1.55;100.00
11643;BME280;5877;50.930;6.918;2023-12-04T17:25:22;99697.75;;;1.04;100.00
11643;BME280;5877;50.930;6.918;2023-12-04T17:30:15;99570.56;;;0.33;100.00
11643;BME280;5877;50.930;6.918;2023-12-04T17:35:08;99740.63;;;1.59;100.00
11643;BME280;5877;50.930;6.918;2023-12-04T17:40:03;99745.53;;;1.31;100.00
11643;BME280;5877;50.930;6.918;2023-12-04T17:44:56;99712.34;;;1.20;100.00
11643;BME280;5877;50.930;6.918;2023-12-04T17:49:49;99919.84;;;8.65;100.00
11643;BME280;5877;50.930;6.918;2023-12-04T17:55:08;64039.22;;;-143.43;100.00
11643;BME280;5877;50.930;6.918;2023-12-04T18:00:09;64039.22;;;-143.43;100.00
11643;BME280;5877;50.930;6.918;2023-12-04T18:05:20;64039.22;;;-143.43;100.00
11643;BME280;5877;50.930;6.918;2023-12-04T18:10:19;64039.22;;;-143.43;100.00
11643;BME280;5877;50.930;6.918;2023-12-04T18:15:16;64039.22;;;-143.43;100.00
11643;BME280;5877;50.930;6.918;2023-12-04T18:20:12;64039.22;;;-143.43;100.00
11643;BME280;5877;50.930;6.918;2023-12-04T18:25:06;64039.22;;;-143.43;100.00
11643;BME280;5877;50.930;6.918;2023-12-04T18:30:00;64039.22;;;-143.43;100.00
11643;BME280;5877;50.930;6.918;2023-12-04T18:34:58;64039.22;;;-143.43;100.00
11643;BME280;5877;50.930;6.918;2023-12-04T18:39:52;64039.22;;;-143.43;100.00
11643;BME280;5877;50.930;6.918;2023-12-04T18:44:45;64039.22;;;-143.43;100.00
11643;BME280;5877;50.930;6.918;2023-12-04T18:49:38;64039.22;;;-143.43;100.00
11643;BME280;5877;50.930;6.918;2023-12-04T18:54:31;64039.22;;;-143.43;100.00
11643;BME280;5877;50.930;6.918;2023-12-04T18:59:25;64039.22;;;-143.43;100.00
11643;BME280;5877;50.930;6.918;2023-12-04T19:04:18;64039.22;;;-143.43;100.00
11643;BME280;5877;50.930;6.918;2023-12-04T19:09:11;64039.22;;;-143.43;100.00
11643;BME280;5877;50.930;6.918;2023-12-04T19:14:03;64039.22;;;-143.43;100.00
11643;BME280;5877;50.930;6.918;2023-12-04T19:18:56;64039.22;;;-143.43;100.00
11643;BME280;5877;50.930;6.918;2023-12-04T19:23:51;64039.22;;;-143.43;100.00
11643;BME280;5877;50.930;6.918;2023-12-04T19:28:49;64039.22;;;-143.43;100.00
11643;BME280;5877;50.930;6.918;2023-12-04T19:33:46;64039.22;;;-143.43;100.00
11643;BME280;5877;50.930;6.918;2023-12-04T19:38:38;64039.22;;;-143.43;100.00
11643;BME280;5877;50.930;6.918;2023-12-04T19:43:32;64039.22;;;-143.43;100.00
11643;BME280;5877;50.930;6.918;2023-12-04T19:48:29;64039.22;;;-143.43;100.00
11643;BME280;5877;50.930;6.918;2023-12-04T19:53:28;64039.22;;;-143.43;100.00
11643;BME280;5877;50.930;6.918;2023-12-04T19:58:24;64039.22;;;-143.43;100.00
11643;BME280;5877;50.930;6.918;2023-12-04T20:03:23;64039.22;;;-143.43;100.00
11643;BME280;5877;50.930;6.918;2023-12-04T20:08:27;64039.22;;;-143.43;100.00
11643;BME280;5877;50.930;6.918;2023-12-04T20:13:24;64039.22;;;-143.43;100.00
11643;BME280;5877;50.930;6.918;2023-12-04T20:18:37;64039.22;;;-143.43;100.00
11643;BME280;5877;50.930;6.918;2023-12-04T20:23:37;64039.22;;;-143.43;100.00
11643;BME280;5877;50.930;6.918;2023-12-04T20:28:33;64039.22;;;-143.43;100.00
11643;BME280;5877;50.930;6.918;2023-12-04T20:33:34;64039.22;;;-143.43;100.00
11643;BME280;5877;50.930;6.918;2023-12-04T20:38:40;64039.22;;;-143.43;100.00
11643;BME280;5877;50.930;6.918;2023-12-04T20:43:40;64039.22;;;-143.43;100.00
11643;BME280;5877;50.930;6.918;2023-12-04T20:48:35;64039.22;;;-143.43;100.00
11643;BME280;5877;50.930;6.918;2023-12-04T20:53:28;64039.22;;;-143.43;100.00
11643;BME280;5877;50.930;6.918;2023-12-04T20:59:02;64039.22;;;-143.43;100.00
11643;BME280;5877;50.930;6.918;2023-12-04T21:04:02;64039.22;;;-143.43;100.00
11643;BME280;5877;50.930;6.918;2023-12-04T21:08:57;64039.22;;;-143.43;100.00
11643;BME280;5877;50.930;6.918;2023-12-04T21:19:26;64039.22;;;-143.43;100.00
11643;BME280;5877;50.930;6.918;2023-12-04T21:24:33;64039.22;;;-143.43;100.00
11643;BME280;5877;50.930;6.918;2023-12-04T21:29:43;64039.22;;;-143.43;100.00
11643;BME280;5877;50.930;6.918;2023-12-04T21:35:18;64039.22;;;-143.43;100.00
11643;BME280;5877;50.930;6.918;2023-12-04T21:40:39;64039.22;;;-143.43;100.00
11643;BME280;5877;50.930;6.918;2023-12-04T21:45:36;64039.22;;;-143.43;100.00
11643;BME280;5877;50.930;6.918;2023-12-04T21:50:38;64039.22;;;-143.43;100.00
11643;BME280;5877;50.930;6.918;2023-12-04T21:55:37;64039.22;;;-143.43;100.00
11643;BME280;5877;50.930;6.918;2023-12-04T22:00:34;64039.22;;;-143.43;100.00
11643;BME280;5877;50.930;6.918;2023-12-04T22:05:27;64039.22;;;-143.43;100.00
11643;BME280;5877;50.930;6.918;2023-12-04T22:10:20;64039.22;;;-143.43;100.00
11643;BME280;5877;50.930;6.918;2023-12-04T22:15:21;64039.22;;;-143.43;100.00
11643;BME280;5877;50.930;6.918;2023-12-04T22:20:32;64039.22;;;-143.43;100.00
11643;BME280;5877;50.930;6.918;2023-12-04T22:25:25;64039.22;;;-143.43;100.00
11643;BME280;5877;50.930;6.918;2023-12-04T22:50:17;64039.22;;;-143.43;100.00
11643;BME280;5877;50.930;6.918;2023-12-04T22:55:59;64039.22;;;-143.43;100.00
11643;BME280;5877;50.930;6.918;2023-12-04T23:01:26;64039.22;;;-143.43;100.00
11643;BME280;5877;50.930;6.918;2023-12-04T23:06:24;64039.22;;;-143.43;100.00
11643;BME280;5877;50.930;6.918;2023-12-04T23:11:31;64039.22;;;-143.43;100.00
11643;BME280;5877;50.930;6.918;2023-12-04T23:17:15;64039.22;;;-143.43;100.00
11643;BME280;5877;50.930;6.918;2023-12-04T23:22:22;64039.22;;;-143.43;100.00
11643;BME280;5877;50.930;6.918;2023-12-04T23:27:39;64039.22;;;-143.43;100.00
11643;BME280;5877;50.930;6.918;2023-12-04T23:32:45;64039.22;;;-143.43;100.00
11643;BME280;5877;50.930;6.918;2023-12-04T23:38:43;64039.22;;;-143.43;100.00
11643;BME280;5877;50.930;6.918;2023-12-04T23:43:53;64039.22;;;-143.43;100.00
11643;BME280;5877;50.930;6.918;2023-12-04T23:48:52;64039.22;;;-143.43;100.00
11643;BME280;5877;50.930;6.918;2023-12-04T23:54:12;64039.22;;;-143.43;100.00
11643;BME280;5877;50.930;6.918;2023-12-04T23:59:12;64039.22;;;-143.43;100.00
